sensor_id;sensor_type;location;lat;lon;timestamp;pressure;altitude;pressure_sealevel;temperature;humidity
3096;BME280;1558;42.700;23.360;2024-02-21T00:00:33;95987.56;;;5.29;100.00
3096;BME280;1558;42.700;23.360;2024-02-21T00:03:02;95991.53;;;5.32;100.00
3096;BME280;1558;42.700;23.360;2024-02-21T00:05:31;95993.69;;;5.30;100.00
3096;BME280;1558;42.700;23.360;2024-02-21T00:07:59;95985.44;;;5.26;100.00
3096;BME280;1558;42.700;23.360;2024-02-21T00:10:28;95981.91;;;5.31;100.00
3096;BME280;1558;42.700;23.360;2024-02-21T00:12:58;95987.50;;;5.34;100.00
3096;BME280;1558;42.700;23.360;2024-02-21T00:15:27;95981.34;;;5.34;100.00
3096;BME280;1558;42.700;23.360;2024-02-21T00:17:56;95988.81;;;5.37;100.00
3096;BME280;1558;42.700;23.360;2024-02-21T00:20:25;95976.53;;;5.36;100.00
3096;BME280;1558;42.700;23.360;2024-02-21T00:22:53;95984.84;;;5.34;100.00
3096;BME280;1558;42.700;23.360;2024-02-21T00:25:21;95983.22;;;5.33;100.00
3096;BME280;1558;42.700;23.360;2024-02-21T00:27:50;95962.03;;;5.13;100.00
3096;BME280;1558;42.700;23.360;2024-02-21T00:30:18;95528.78;;;2.48;100.00
3096;BME280;1558;42.700;23.360;2024-02-21T00:32:46;95923.06;;;5.02;100.00
3096;BME280;1558;42.700;23.360;2024-02-21T00:35:16;95950.44;;;5.23;100.00
3096;BME280;1558;42.700;23.360;2024-02-21T00:38:01;95979.75;;;5.33;100.00
3096;BME280;1558;42.700;23.360;2024-02-21T00:40:30;95986.16;;;5.37;100.00
3096;BME280;1558;42.700;23.360;2024-02-21T00:42:58;95975.97;;;5.39;100.00
3096;BME280;1558;42.700;23.360;2024-02-21T00:45:27;95965.31;;;5.34;100.00
3096;BME280;1558;42.700;23.360;2024-02-21T00:47:55;95965.53;;;5.37;100.00
3096;BME280;1558;42.700;23.360;2024-02-21T00:50:24;95956.47;;;5.33;100.00
3096;BME280;1558;42.700;23.360;2024-02-21T00:52:53;95964.97;;;5.40;100.00
3096;BME280;1558;42.700;23.360;2024-02-21T00:55:22;95954.63;;;5.34;100.00
3096;BME280;1558;42.700;23.360;2024-02-21T00:57:50;95966.84;;;5.40;100.00
3096;BME280;1558;42.700;23.360;2024-02-21T01:00:19;95964.16;;;5.40;100.00
3096;BME280;1558;42.700;23.360;2024-02-21T01:02:47;95955.63;;;5.38;100.00
3096;BME280;1558;42.700;23.360;2024-02-21T01:05:19;95952.69;;;5.39;100.00
3096;BME280;1558;42.700;23.360;2024-02-21T01:07:49;95953.47;;;5.40;100.00
3096;BME280;1558;42.700;23.360;2024-02-21T01:10:17;95938.28;;;5.35;100.00
3096;BME280;1558;42.700;23.360;2024-02-21T01:12:45;95947.56;;;5.43;100.00
3096;BME280;1558;42.700;23.360;2024-02-21T01:15:13;95945.44;;;5.40;100.00
3096;BME280;1558;42.700;23.360;2024-02-21T01:17:42;95944.38;;;5.41;100.00
3096;BME280;1558;42.700;23.360;2024-02-21T01:20:11;95941.19;;;5.39;100.00
3096;BME280;1558;42.700;23.360;2024-02-21T01:22:39;95938.78;;;5.37;100.00
3096;BME280;1558;42.700;23.360;2024-02-21T01:25:09;95940.16;;;5.35;100.00
3096;BME280;1558;42.700;23.360;2024-02-21T01:27:37;95939.31;;;5.39;100.00
3096;BME280;1558;42.700;23.360;2024-02-21T01:30:06;95938.56;;;5.34;100.00
3096;BME280;1558;42.700;23.360;2024-02-21T01:32:35;95934.03;;;5.34;100.00
3096;BME280;1558;42.700;23.360;2024-02-21T01:35:06;95924.94;;;5.30;100.00
3096;BME280;1558;42.700;23.360;2024-02-21T01:37:34;95911.75;;;5.15;100.00
3096;BME280;1558;42.700;23.360;2024-02-21T01:40:03;95932.25;;;5.25;100.00
3096;BME280;1558;42.700;23.360;2024-02-21T01:42:32;95921.03;;;5.23;100.00
3096;BME280;1558;42.700;23.360;2024-02-21T01:45:00;95926.09;;;5.24;100.00
3096;BME280;1558;42.700;23.360;2024-02-21T01:47:29;95924.44;;;5.28;100.00
3096;BME280;1558;42.700;23.360;2024-02-21T01:49:57;95901.19;;;5.29;100.00
3096;BME280;1558;42.700;23.360;2024-02-21T01:52:25;95914.50;;;5.34;100.00
3096;BME280;1558;42.700;23.360;2024-02-21T01:54:54;95913.66;;;5.38;100.00
3096;BME280;1558;42.700;23.360;2024-02-21T01:57:23;95905.91;;;5.37;100.00
3096;BME280;1558;42.700;23.360;2024-02-21T01:59:53;95913.13;;;5.36;100.00
3096;BME280;1558;42.700;23.360;2024-02-21T02:02:21;95915.47;;;5.43;100.00
3096;BME280;1558;42.700;23.360;2024-02-21T02:04:50;95911.94;;;5.47;100.00
3096;BME280;1558;42.700;23.360;2024-02-21T02:07:19;95913.53;;;5.48;100.00
3096;BME280;1558;42.700;23.360;2024-02-21T02:09:48;95915.94;;;5.50;100.00
3096;BME280;1558;42.700;23.360;2024-02-21T02:12:16;95887.75;;;5.34;100.00
3096;BME280;1558;42.700;23.360;2024-02-21T02:14:44;95871.00;;;5.23;100.00
3096;BME280;1558;42.700;23.360;2024-02-21T02:17:14;95915.81;;;5.60;100.00
3096;BME280;1558;42.700;23.360;2024-02-21T02:19:43;95912.06;;;5.61;100.00
3096;BME280;1558;42.700;23.360;2024-02-21T02:22:16;95909.13;;;5.63;100.00
3096;BME280;1558;42.700;23.360;2024-02-21T02:24:49;95905.63;;;5.62;100.00
3096;BME280;1558;42.700;23.360;2024-02-21T02:27:17;95872.91;;;5.46;100.00
3096;BME280;1558;42.700;23.360;2024-02-21T02:29:45;95896.44;;;5.68;100.00
3096;BME280;1558;42.700;23.360;2024-02-21T02:32:13;95897.84;;;5.66;100.00
3096;BME280;1558;42.700;23.360;2024-02-21T02:34:42;95897.59;;;5.62;100.00
3096;BME280;1558;42.700;23.360;2024-02-21T02:37:10;95894.19;;;5.57;100.00
3096;BME280;1558;42.700;23.360;2024-02-21T02:39:38;95903.56;;;5.54;100.00
3096;BME280;1558;42.700;23.360;2024-02-21T02:42:08;95897.50;;;5.48;100.00
3096;BME280;1558;42.700;23.360;2024-02-21T02:44:36;95894.63;;;5.40;100.00
3096;BME280;1558;42.700;23.360;2024-02-21T02:47:04;95897.75;;;5.47;100.00
3096;BME280;1558;42.700;23.360;2024-02-21T02:49:33;95878.94;;;5.33;100.00
3096;BME280;1558;42.700;23.360;2024-02-21T02:52:01;95902.56;;;5.50;100.00
3096;BME280;1558;42.700;23.360;2024-02-21T02:54:29;95902.72;;;5.59;100.00
3096;BME280;1558;42.700;23.360;2024-02-21T02:56:58;95910.47;;;5.60;100.00
3096;BME280;1558;42.700;23.360;2024-02-21T02:59:27;95909.47;;;5.56;100.00
3096;BME280;1558;42.700;23.360;2024-02-21T03:01:55;95910.75;;;5.59;100.00
3096;BME280;1558;42.700;23.360;2024-02-21T03:04:23;95893.06;;;5.63;100.00
3096;BME280;1558;42.700;23.360;2024-02-21T03:06:52;95897.59;;;5.62;100.00
3096;BME280;1558;42.700;23.360;2024-02-21T03:09:20;95898.41;;;5.63;100.00
3096;BME280;1558;42.700;23.360;2024-02-21T03:11:48;95902.41;;;5.65;100.00
3096;BME280;1558;42.700;23.360;2024-02-21T03:14:16;95877.47;;;5.46;100.00
3096;BME280;1558;42.700;23.360;2024-02-21T03:16:46;95903.88;;;5.53;100.00
3096;BME280;1558;42.700;23.360;2024-02-21T03:19:14;95924.91;;;5.59;100.00
3096;BME280;1558;42.700;23.360;2024-02-21T03:21:42;95915.25;;;5.63;100.00
3096;BME280;1558;42.700;23.360;2024-02-21T03:24:10;95907.84;;;5.55;100.00
3096;BME280;1558;42.700;23.360;2024-02-21T03:26:38;95883.47;;;5.33;100.00
3096;BME280;1558;42.700;23.360;2024-02-21T03:29:07;95915.88;;;5.55;100.00
3096;BME280;1558;42.700;23.360;2024-02-21T03:31:35;95922.25;;;5.59;100.00
3096;BME280;1558;42.700;23.360;2024-02-21T03:34:05;95916.38;;;5.57;100.00
3096;BME280;1558;42.700;23.360;2024-02-21T03:36:33;95921.13;;;5.65;100.00
3096;BME280;1558;42.700;23.360;2024-02-21T03:39:01;95925.63;;;5.70;100.00
3096;BME280;1558;42.700;23.360;2024-02-21T03:41:29;95929.00;;;5.75;100.00
3096;BME280;1558;42.700;23.360;2024-02-21T03:43:57;95930.63;;;5.76;100.00
3096;BME280;1558;42.700;23.360;2024-02-21T03:46:26;95938.66;;;5.76;100.00
3096;BME280;1558;42.700;23.360;2024-02-21T03:48:54;95935.41;;;5.79;100.00
3096;BME280;1558;42.700;23.360;2024-02-21T03:51:24;95937.00;;;5.80;100.00
3096;BME280;1558;42.700;23.360;2024-02-21T03:53:52;95931.44;;;5.77;100.00
3096;BME280;1558;42.700;23.360;2024-02-21T03:56:21;95937.03;;;5.75;100.00
3096;BME280;1558;42.700;23.360;2024-02-21T03:58:50;95937.63;;;5.72;100.00
3096;BME280;1558;42.700;23.360;2024-02-21T04:01:18;95936.53;;;5.73;100.00
3096;BME280;1558;42.700;23.360;2024-02-21T04:03:46;95920.97;;;5.52;100.00
3096;BME280;1558;42.700;23.360;2024-02-21T04:06:14;95936.72;;;5.58;100.00
3096;BME280;1558;42.700;23.360;2024-02-21T04:08:45;95932.16;;;5.59;100.00
3096;BME280;1558;42.700;23.360;2024-02-21T04:11:13;95934.03;;;5.58;100.00
3096;BME280;1558;42.700;23.360;2024-02-21T04:13:41;95920.94;;;5.57;100.00
3096;BME280;1558;42.700;23.360;2024-02-21T04:16:09;95923.91;;;5.55;100.00
3096;BME280;1558;42.700;23.360;2024-02-21T04:18:39;95924.97;;;5.54;100.00
3096;BME280;1558;42.700;23.360;2024-02-21T04:21:07;95926.63;;;5.50;100.00
3096;BME280;1558;42.700;23.360;2024-02-21T04:23:35;95923.16;;;5.49;100.00
3096;BME280;1558;42.700;23.360;2024-02-21T04:26:05;95929.31;;;5.50;100.00
3096;BME280;1558;42.700;23.360;2024-02-21T04:28:33;95916.28;;;5.43;100.00
3096;BME280;1558;42.700;23.360;2024-02-21T04:31:01;95923.16;;;5.49;100.00
3096;BME280;1558;42.700;23.360;2024-02-21T04:33:29;95915.97;;;5.45;100.00
3096;BME280;1558;42.700;23.360;2024-02-21T04:35:58;95927.19;;;5.47;100.00
3096;BME280;1558;42.700;23.360;2024-02-21T04:38:27;95929.13;;;5.41;100.00
3096;BME280;1558;42.700;23.360;2024-02-21T04:40:55;95929.34;;;5.45;100.00
3096;BME280;1558;42.700;23.360;2024-02-21T04:43:26;95931.75;;;5.46;100.00
3096;BME280;1558;42.700;23.360;2024-02-21T04:45:54;95931.75;;;5.46;100.00
3096;BME280;1558;42.700;23.360;2024-02-21T04:48:23;95921.56;;;5.48;100.00
3096;BME280;1558;42.700;23.360;2024-02-21T04:50:51;95931.16;;;5.49;100.00
3096;BME280;1558;42.700;23.360;2024-02-21T04:53:19;95934.81;;;5.59;100.00
3096;BME280;1558;42.700;23.360;2024-02-21T04:55:47;95938.53;;;5.63;100.00
3096;BME280;1558;42.700;23.360;2024-02-21T04:58:16;95933.47;;;5.61;100.00
3096;BME280;1558;42.700;23.360;2024-02-21T05:00:45;95922.25;;;5.59;100.00
3096;BME280;1558;42.700;23.360;2024-02-21T05:03:13;95931.31;;;5.63;100.00
3096;BME280;1558;42.700;23.360;2024-02-21T05:05:42;95934.56;;;5.60;100.00
3096;BME280;1558;42.700;23.360;2024-02-21T05:08:10;95939.63;;;5.62;100.00
3096;BME280;1558;42.700;23.360;2024-02-21T05:10:38;95932.16;;;5.59;100.00
3096;BME280;1558;42.700;23.360;2024-02-21T05:13:07;95934.00;;;5.63;100.00
3096;BME280;1558;42.700;23.360;2024-02-21T05:15:35;95937.13;;;5.70;100.00
3096;BME280;1558;42.700;23.360;2024-02-21T05:18:05;95941.31;;;5.76;100.00
3096;BME280;1558;42.700;23.360;2024-02-21T05:20:34;95946.88;;;5.85;100.00
3096;BME280;1558;42.700;23.360;2024-02-21T05:23:02;95942.94;;;5.77;100.00
3096;BME280;1558;42.700;23.360;2024-02-21T05:25:31;95943.50;;;5.74;100.00
3096;BME280;1558;42.700;23.360;2024-02-21T05:27:59;95949.06;;;5.78;100.00
3096;BME280;1558;42.700;23.360;2024-02-21T05:30:29;95938.50;;;5.68;100.00
3096;BME280;1558;42.700;23.360;2024-02-21T05:32:57;95949.66;;;5.75;100.00
3096;BME280;1558;42.700;23.360;2024-02-21T05:35:28;95951.47;;;5.79;100.00
3096;BME280;1558;42.700;23.360;2024-02-21T05:37:56;95949.66;;;5.75;100.00
3096;BME280;1558;42.700;23.360;2024-02-21T05:40:26;95947.38;;;5.63;100.00
3096;BME280;1558;42.700;23.360;2024-02-21T05:42:54;95950.31;;;5.62;100.00
3096;BME280;1558;42.700;23.360;2024-02-21T05:45:22;95916.53;;;5.42;100.00
3096;BME280;1558;42.700;23.360;2024-02-21T05:47:51;95943.38;;;5.61;100.00
3096;BME280;1558;42.700;23.360;2024-02-21T05:50:19;95940.50;;;5.52;100.00
3096;BME280;1558;42.700;23.360;2024-02-21T05:52:51;95929.13;;;5.41;100.00
3096;BME280;1558;42.700;23.360;2024-02-21T05:55:19;95955.41;;;5.63;100.00
3096;BME280;1558;42.700;23.360;2024-02-21T05:57:47;95953.19;;;5.70;100.00
3096;BME280;1558;42.700;23.360;2024-02-21T06:00:16;95965.91;;;5.78;100.00
3096;BME280;1558;42.700;23.360;2024-02-21T06:02:44;95958.31;;;5.90;100.00
3096;BME280;1558;42.700;23.360;2024-02-21T06:05:13;95964.13;;;5.97;100.00
3096;BME280;1558;42.700;23.360;2024-02-21T06:07:42;95964.03;;;6.07;100.00
3096;BME280;1558;42.700;23.360;2024-02-21T06:10:11;95952.28;;;6.03;100.00
3096;BME280;1558;42.700;23.360;2024-02-21T06:12:40;95966.59;;;6.18;100.00
3096;BME280;1558;42.700;23.360;2024-02-21T06:15:08;95975.41;;;6.79;100.00
3096;BME280;1558;42.700;23.360;2024-02-21T06:17:37;95924.38;;;6.84;100.00
3096;BME280;1558;42.700;23.360;2024-02-21T06:20:06;95835.00;;;6.75;100.00
3096;BME280;1558;42.700;23.360;2024-02-21T06:22:34;95972.66;;;8.08;100.00
3096;BME280;1558;42.700;23.360;2024-02-21T06:25:03;95981.19;;;8.24;100.00
3096;BME280;1558;42.700;23.360;2024-02-21T06:27:32;95966.19;;;8.36;100.00
3096;BME280;1558;42.700;23.360;2024-02-21T06:30:01;95978.06;;;8.71;100.00
3096;BME280;1558;42.700;23.360;2024-02-21T06:32:29;95987.38;;;9.01;100.00
3096;BME280;1558;42.700;23.360;2024-02-21T06:34:58;95985.81;;;8.86;100.00
3096;BME280;1558;42.700;23.360;2024-02-21T06:37:28;95987.06;;;8.39;100.00
3096;BME280;1558;42.700;23.360;2024-02-21T06:39:57;95994.72;;;8.05;100.00
3096;BME280;1558;42.700;23.360;2024-02-21T06:42:25;95994.00;;;7.86;100.00
3096;BME280;1558;42.700;23.360;2024-02-21T06:44:55;95995.91;;;7.99;100.00
3096;BME280;1558;42.700;23.360;2024-02-21T06:47:24;96008.47;;;8.17;100.00
3096;BME280;1558;42.700;23.360;2024-02-21T06:49:52;96007.88;;;8.20;100.00
3096;BME280;1558;42.700;23.360;2024-02-21T06:52:20;96002.25;;;7.89;100.00
3096;BME280;1558;42.700;23.360;2024-02-21T06:54:49;96009.63;;;7.51;100.00
3096;BME280;1558;42.700;23.360;2024-02-21T06:57:17;96011.47;;;7.37;100.00
3096;BME280;1558;42.700;23.360;2024-02-21T06:59:46;96011.56;;;7.32;100.00
3096;BME280;1558;42.700;23.360;2024-02-21T07:02:15;96010.28;;;7.62;100.00
3096;BME280;1558;42.700;23.360;2024-02-21T07:04:43;96008.97;;;8.05;100.00
3096;BME280;1558;42.700;23.360;2024-02-21T07:07:12;96005.63;;;8.27;100.00
3096;BME280;1558;42.700;23.360;2024-02-21T07:09:40;96006.09;;;8.43;100.00
3096;BME280;1558;42.700;23.360;2024-02-21T07:12:09;96017.03;;;8.33;100.00
3096;BME280;1558;42.700;23.360;2024-02-21T07:14:37;96010.56;;;8.20;100.00
3096;BME280;1558;42.700;23.360;2024-02-21T07:17:05;96003.88;;;8.04;100.00
3096;BME280;1558;42.700;23.360;2024-02-21T07:19:35;96013.53;;;8.18;100.00
3096;BME280;1558;42.700;23.360;2024-02-21T07:22:03;96004.81;;;8.40;100.00
3096;BME280;1558;42.700;23.360;2024-02-21T07:24:32;96000.63;;;8.48;100.00
3096;BME280;1558;42.700;23.360;2024-02-21T07:27:00;96009.78;;;8.33;100.00
3096;BME280;1558;42.700;23.360;2024-02-21T07:29:31;96007.97;;;8.42;100.00
3096;BME280;1558;42.700;23.360;2024-02-21T07:31:59;96014.97;;;9.28;100.00
3096;BME280;1558;42.700;23.360;2024-02-21T07:34:28;96016.88;;;9.50;100.00
3096;BME280;1558;42.700;23.360;2024-02-21T07:36:58;96015.28;;;9.27;98.49
3096;BME280;1558;42.700;23.360;2024-02-21T07:39:26;96021.13;;;9.07;98.96
3096;BME280;1558;42.700;23.360;2024-02-21T07:41:54;96017.00;;;8.73;99.69
3096;BME280;1558;42.700;23.360;2024-02-21T07:44:22;96010.16;;;8.67;100.00
3096;BME280;1558;42.700;23.360;2024-02-21T07:46:50;96014.75;;;8.53;100.00
3096;BME280;1558;42.700;23.360;2024-02-21T07:49:18;96012.13;;;8.75;100.00
3096;BME280;1558;42.700;23.360;2024-02-21T07:51:47;96008.13;;;8.87;100.00
3096;BME280;1558;42.700;23.360;2024-02-21T07:54:17;96003.13;;;8.94;100.00
3096;BME280;1558;42.700;23.360;2024-02-21T07:56:47;96010.31;;;8.84;99.71
3096;BME280;1558;42.700;23.360;2024-02-21T07:59:15;96011.25;;;9.38;100.00
3096;BME280;1558;42.700;23.360;2024-02-21T08:01:43;96004.63;;;9.97;95.52
3096;BME280;1558;42.700;23.360;2024-02-21T08:04:12;95991.59;;;10.21;93.98
3096;BME280;1558;42.700;23.360;2024-02-21T08:06:41;95996.41;;;10.33;91.86
3096;BME280;1558;42.700;23.360;2024-02-21T08:09:10;96000.84;;;10.29;90.99
3096;BME280;1558;42.700;23.360;2024-02-21T08:11:39;96003.06;;;10.35;90.82
3096;BME280;1558;42.700;23.360;2024-02-21T08:14:08;96000.50;;;10.22;89.57
3096;BME280;1558;42.700;23.360;2024-02-21T08:16:36;96005.84;;;10.13;89.16
3096;BME280;1558;42.700;23.360;2024-02-21T08:19:04;96019.63;;;9.36;89.70
3096;BME280;1558;42.700;23.360;2024-02-21T08:21:32;96007.44;;;9.17;91.77
3096;BME280;1558;42.700;23.360;2024-02-21T08:24:01;96007.44;;;9.61;93.05
3096;BME280;1558;42.700;23.360;2024-02-21T08:26:29;96004.16;;;10.26;90.92
3096;BME280;1558;42.700;23.360;2024-02-21T08:28:59;95997.44;;;10.62;87.70
3096;BME280;1558;42.700;23.360;2024-02-21T08:31:28;95996.19;;;10.77;87.17
3096;BME280;1558;42.700;23.360;2024-02-21T08:33:58;95996.47;;;10.50;85.76
3096;BME280;1558;42.700;23.360;2024-02-21T08:36:29;95998.75;;;10.82;85.54
3096;BME280;1558;42.700;23.360;2024-02-21T08:39:00;95994.91;;;10.74;85.07
3096;BME280;1558;42.700;23.360;2024-02-21T08:41:30;96000.00;;;10.76;85.31
3096;BME280;1558;42.700;23.360;2024-02-21T08:44:19;96000.19;;;11.22;83.82
3096;BME280;1558;42.700;23.360;2024-02-21T08:46:47;95997.19;;;11.24;83.42
3096;BME280;1558;42.700;23.360;2024-02-21T08:49:17;95990.22;;;11.14;82.35
3096;BME280;1558;42.700;23.360;2024-02-21T08:51:45;95960.59;;;10.58;82.45
3096;BME280;1558;42.700;23.360;2024-02-21T08:54:13;95996.69;;;10.79;81.95
3096;BME280;1558;42.700;23.360;2024-02-21T08:56:41;95993.25;;;10.39;81.65
3096;BME280;1558;42.700;23.360;2024-02-21T08:59:10;96001.53;;;10.43;83.88
3096;BME280;1558;42.700;23.360;2024-02-21T09:01:40;96002.47;;;10.47;83.36
3096;BME280;1558;42.700;23.360;2024-02-21T09:04:08;95997.19;;;10.33;83.52
3096;BME280;1558;42.700;23.360;2024-02-21T09:06:36;95999.56;;;10.35;84.13
3096;BME280;1558;42.700;23.360;2024-02-21T09:09:09;95965.88;;;9.84;83.67
3096;BME280;1558;42.700;23.360;2024-02-21T09:11:37;96006.28;;;9.84;84.86
3096;BME280;1558;42.700;23.360;2024-02-21T09:14:06;96011.78;;;9.71;86.60
3096;BME280;1558;42.700;23.360;2024-02-21T09:16:35;95999.03;;;9.18;87.21
3096;BME280;1558;42.700;23.360;2024-02-21T09:19:05;95955.41;;;8.85;88.34
3096;BME280;1558;42.700;23.360;2024-02-21T09:21:33;96007.59;;;9.20;88.51
3096;BME280;1558;42.700;23.360;2024-02-21T09:24:02;96002.19;;;9.34;88.90
3096;BME280;1558;42.700;23.360;2024-02-21T09:26:30;95998.19;;;9.53;87.94
3096;BME280;1558;42.700;23.360;2024-02-21T09:28:58;95997.41;;;9.53;86.93
3096;BME280;1558;42.700;23.360;2024-02-21T09:31:27;95972.97;;;9.49;85.92
3096;BME280;1558;42.700;23.360;2024-02-21T09:33:55;96005.56;;;9.70;85.57
3096;BME280;1558;42.700;23.360;2024-02-21T09:36:24;95998.78;;;10.03;84.58
3096;BME280;1558;42.700;23.360;2024-02-21T09:38:53;95987.38;;;10.06;81.92
3096;BME280;1558;42.700;23.360;2024-02-21T09:41:25;95994.59;;;10.67;82.06
3096;BME280;1558;42.700;23.360;2024-02-21T09:43:54;95996.72;;;11.05;81.08
3096;BME280;1558;42.700;23.360;2024-02-21T09:46:30;95996.69;;;10.96;77.97
3096;BME280;1558;42.700;23.360;2024-02-21T09:49:12;96001.25;;;10.70;78.98
3096;BME280;1558;42.700;23.360;2024-02-21T09:51:44;96001.91;;;10.75;79.19
3096;BME280;1558;42.700;23.360;2024-02-21T09:54:14;95997.69;;;11.26;79.30
3096;BME280;1558;42.700;23.360;2024-02-21T09:56:45;95996.94;;;12.06;77.66
3096;BME280;1558;42.700;23.360;2024-02-21T09:59:14;95980.19;;;12.79;73.37
3096;BME280;1558;42.700;23.360;2024-02-21T10:01:43;95996.78;;;12.69;71.94
3096;BME280;1558;42.700;23.360;2024-02-21T10:04:13;95993.66;;;11.83;70.99
3096;BME280;1558;42.700;23.360;2024-02-21T10:06:43;95983.97;;;11.65;72.11
3096;BME280;1558;42.700;23.360;2024-02-21T10:09:20;95986.06;;;11.60;72.41
3096;BME280;1558;42.700;23.360;2024-02-21T10:11:50;95975.63;;;12.04;75.20
3096;BME280;1558;42.700;23.360;2024-02-21T10:14:18;95970.56;;;12.41;70.54
3096;BME280;1558;42.700;23.360;2024-02-21T10:16:47;95966.88;;;12.37;69.71
3096;BME280;1558;42.700;23.360;2024-02-21T10:19:17;95975.97;;;12.41;67.81
3096;BME280;1558;42.700;23.360;2024-02-21T10:22:04;95959.69;;;12.11;68.60
3096;BME280;1558;42.700;23.360;2024-02-21T10:24:35;95975.38;;;11.80;66.91
3096;BME280;1558;42.700;23.360;2024-02-21T10:27:06;95969.69;;;11.47;68.01
3096;BME280;1558;42.700;23.360;2024-02-21T10:29:35;95954.56;;;11.81;68.82
3096;BME280;1558;42.700;23.360;2024-02-21T10:32:05;95943.56;;;11.86;67.52
3096;BME280;1558;42.700;23.360;2024-02-21T10:34:34;95949.59;;;13.08;68.76
3096;BME280;1558;42.700;23.360;2024-02-21T10:37:05;95945.78;;;13.75;64.72
3096;BME280;1558;42.700;23.360;2024-02-21T10:39:36;95919.78;;;13.62;63.31
3096;BME280;1558;42.700;23.360;2024-02-21T10:42:05;95926.69;;;13.38;62.09
3096;BME280;1558;42.700;23.360;2024-02-21T10:44:37;95924.91;;;13.10;62.69
3096;BME280;1558;42.700;23.360;2024-02-21T10:47:08;95924.16;;;13.54;62.30
3096;BME280;1558;42.700;23.360;2024-02-21T10:49:38;95904.97;;;13.59;60.43
3096;BME280;1558;42.700;23.360;2024-02-21T10:52:14;95908.34;;;13.23;60.05
3096;BME280;1558;42.700;23.360;2024-02-21T10:54:46;95906.56;;;13.72;60.20
3096;BME280;1558;42.700;23.360;2024-02-21T10:57:17;95873.94;;;14.29;57.92
3096;BME280;1558;42.700;23.360;2024-02-21T10:59:47;95897.53;;;13.68;56.57
3096;BME280;1558;42.700;23.360;2024-02-21T11:02:16;95889.84;;;13.25;57.70
3096;BME280;1558;42.700;23.360;2024-02-21T11:04:46;95890.25;;;13.15;58.47
3096;BME280;1558;42.700;23.360;2024-02-21T11:07:16;95893.41;;;12.97;58.99
3096;BME280;1558;42.700;23.360;2024-02-21T11:09:51;95885.63;;;13.16;56.41
3096;BME280;1558;42.700;23.360;2024-02-21T11:12:20;95882.75;;;13.33;56.96
3096;BME280;1558;42.700;23.360;2024-02-21T11:14:49;95874.22;;;12.89;56.70
3096;BME280;1558;42.700;23.360;2024-02-21T11:17:17;95875.28;;;13.30;58.44
3096;BME280;1558;42.700;23.360;2024-02-21T11:19:46;95862.31;;;13.92;56.35
3096;BME280;1558;42.700;23.360;2024-02-21T11:22:17;95861.53;;;14.28;54.30
3096;BME280;1558;42.700;23.360;2024-02-21T11:24:46;95863.63;;;14.71;51.92
3096;BME280;1558;42.700;23.360;2024-02-21T11:27:16;95859.59;;;15.20;50.72
3096;BME280;1558;42.700;23.360;2024-02-21T11:29:47;95795.28;;;14.69;48.69
3096;BME280;1558;42.700;23.360;2024-02-21T11:32:16;95851.81;;;14.39;48.57
3096;BME280;1558;42.700;23.360;2024-02-21T11:34:56;95855.53;;;14.35;49.66
3096;BME280;1558;42.700;23.360;2024-02-21T11:37:31;95865.91;;;13.72;50.17
3096;BME280;1558;42.700;23.360;2024-02-21T11:40:01;95831.34;;;12.91;51.15
3096;BME280;1558;42.700;23.360;2024-02-21T11:42:30;95853.91;;;12.96;52.24
3096;BME280;1558;42.700;23.360;2024-02-21T11:44:59;95860.22;;;12.67;53.38
3096;BME280;1558;42.700;23.360;2024-02-21T11:47:28;95851.81;;;12.39;55.00
3096;BME280;1558;42.700;23.360;2024-02-21T11:49:57;95851.16;;;12.21;55.81
3096;BME280;1558;42.700;23.360;2024-02-21T11:52:25;95848.84;;;12.03;56.91
3096;BME280;1558;42.700;23.360;2024-02-21T11:54:56;95845.41;;;11.94;57.20
3096;BME280;1558;42.700;23.360;2024-02-21T11:57:32;95848.78;;;11.91;57.65
3096;BME280;1558;42.700;23.360;2024-02-21T12:00:12;95837.75;;;11.58;57.33
3096;BME280;1558;42.700;23.360;2024-02-21T12:02:40;95836.38;;;11.43;58.35
3096;BME280;1558;42.700;23.360;2024-02-21T12:05:09;95842.19;;;11.16;58.73
3096;BME280;1558;42.700;23.360;2024-02-21T12:07:37;95848.56;;;11.03;59.53
3096;BME280;1558;42.700;23.360;2024-02-21T12:10:09;95838.72;;;11.07;60.63
3096;BME280;1558;42.700;23.360;2024-02-21T12:12:38;95835.06;;;11.03;60.89
3096;BME280;1558;42.700;23.360;2024-02-21T12:15:07;95837.00;;;10.85;60.63
3096;BME280;1558;42.700;23.360;2024-02-21T12:17:37;95830.34;;;10.83;60.71
3096;BME280;1558;42.700;23.360;2024-02-21T12:20:06;95836.50;;;10.92;60.57
3096;BME280;1558;42.700;23.360;2024-02-21T12:22:37;95830.50;;;10.78;61.15
3096;BME280;1558;42.700;23.360;2024-02-21T12:25:15;95831.31;;;10.78;61.30
3096;BME280;1558;42.700;23.360;2024-02-21T12:27:45;95787.34;;;10.44;61.52
3096;BME280;1558;42.700;23.360;2024-02-21T12:30:17;95823.06;;;10.66;62.05
3096;BME280;1558;42.700;23.360;2024-02-21T12:32:46;95822.59;;;10.64;62.08
3096;BME280;1558;42.700;23.360;2024-02-21T12:35:15;95819.56;;;10.66;61.82
3096;BME280;1558;42.700;23.360;2024-02-21T12:37:44;95825.56;;;10.63;61.73
3096;BME280;1558;42.700;23.360;2024-02-21T12:40:14;95817.97;;;10.56;61.84
3096;BME280;1558;42.700;23.360;2024-02-21T12:42:42;95816.38;;;10.64;62.40
3096;BME280;1558;42.700;23.360;2024-02-21T12:45:12;95821.13;;;10.75;62.64
3096;BME280;1558;42.700;23.360;2024-02-21T12:47:42;95806.84;;;10.75;62.58
3096;BME280;1558;42.700;23.360;2024-02-21T12:50:10;95818.47;;;10.67;64.46
3096;BME280;1558;42.700;23.360;2024-02-21T12:52:39;95808.94;;;10.61;65.68
3096;BME280;1558;42.700;23.360;2024-02-21T12:55:09;95815.91;;;10.45;68.13
3096;BME280;1558;42.700;23.360;2024-02-21T12:57:41;95817.66;;;10.41;69.61
3096;BME280;1558;42.700;23.360;2024-02-21T13:00:10;95817.84;;;10.53;70.45
3096;BME280;1558;42.700;23.360;2024-02-21T13:02:38;95802.75;;;10.43;70.82
3096;BME280;1558;42.700;23.360;2024-02-21T13:05:07;95809.59;;;10.41;71.91
3096;BME280;1558;42.700;23.360;2024-02-21T13:07:35;95801.34;;;10.46;72.58
3096;BME280;1558;42.700;23.360;2024-02-21T13:10:04;95800.38;;;10.59;72.82
3096;BME280;1558;42.700;23.360;2024-02-21T13:12:32;95802.44;;;10.62;72.71
3096;BME280;1558;42.700;23.360;2024-02-21T13:15:02;95798.63;;;10.46;73.20
3096;BME280;1558;42.700;23.360;2024-02-21T13:17:30;95796.72;;;10.55;73.16
3096;BME280;1558;42.700;23.360;2024-02-21T13:19:59;95789.91;;;10.57;73.45
3096;BME280;1558;42.700;23.360;2024-02-21T13:22:27;95790.19;;;10.56;74.06